Oostkamp, Belgium
Current Conditions -  °F | °C
As of 4:20 AM on Tuesday 27 Jan 2015 (Local Time) from EBOS Reporting Station
Broken Clouds Broken Clouds  
Wind Chill: 34°   Ceiling: 1900
Heat Index: 41°   Visibility: 6mi
Dew Point: 37°   Wind: 13mph
Humidity: 87%   Direction: 310°NW
Pressure: 30.27"   Gusts: NA
Location:  51.15°N, 3.23°E
Report Text: EBOS 270320Z 31011KT 9999 BKN019 05/03 Q1025 NOSIG
Loading
Personal Weather Stations






























Interactive Weather Map New forecast layout! Learn more

10-Day Weather Forecast

Advertisements
Track Severe Weather on mobile